createdAt,value
2018-01-12T05:00:55.325Z,0
2018-01-12T05:01:20.875Z,0
2018-01-12T05:01:46.398Z,0
2018-01-12T05:02:11.930Z,0
2018-01-12T05:02:37.438Z,0
2018-01-12T05:03:02.896Z,0
2018-01-12T05:03:28.348Z,0
2018-01-12T05:03:53.888Z,0
2018-01-12T05:04:19.384Z,0
2018-01-12T05:04:44.874Z,0
2018-01-12T05:05:10.364Z,0
2018-01-12T05:06:19.245Z,0
2018-01-12T05:06:44.717Z,0
2018-01-12T05:07:10.176Z,0
2018-01-12T05:07:35.681Z,0
2018-01-12T05:08:01.156Z,0
2018-01-12T05:08:26.662Z,0
2018-01-12T05:08:52.197Z,0
2018-01-12T05:09:17.716Z,0
2018-01-12T05:09:43.195Z,0
2018-01-12T05:10:08.718Z,0
2018-01-12T05:10:34.213Z,0
2018-01-12T05:10:59.706Z,0
2018-01-12T05:11:25.216Z,0
2018-01-12T05:11:50.747Z,0
2018-01-12T05:12:16.259Z,0
2018-01-12T05:12:41.751Z,0
2018-01-12T05:13:07.245Z,0
2018-01-12T05:13:32.754Z,0
2018-01-12T05:13:58.246Z,0
2018-01-12T05:14:23.752Z,0
2018-01-12T05:14:49.270Z,0
2018-01-12T05:15:14.778Z,0
2018-01-12T05:15:40.292Z,0
2018-01-12T05:16:05.791Z,0
2018-01-12T05:16:31.258Z,0
2018-01-12T05:16:56.732Z,0
2018-01-12T05:17:22.265Z,0
2018-01-12T05:17:47.779Z,0
2018-01-12T05:18:13.301Z,0
2018-01-12T05:18:38.804Z,0
2018-01-12T05:19:04.300Z,0
2018-01-12T05:19:29.762Z,0
2018-01-12T05:19:55.317Z,0
2018-01-12T05:20:20.779Z,0
2018-01-12T05:20:46.273Z,0
2018-01-12T05:21:11.727Z,0
2018-01-12T05:21:37.229Z,0
2018-01-12T05:22:02.710Z,0
2018-01-12T05:22:28.251Z,0
2018-01-12T05:22:53.717Z,0
2018-01-12T05:23:19.217Z,0
2018-01-12T05:23:44.694Z,0
2018-01-12T05:24:10.224Z,0
2018-01-12T05:24:35.682Z,0
2018-01-12T05:25:01.152Z,0
2018-01-12T05:25:26.693Z,0
2018-01-12T05:25:52.239Z,0
2018-01-12T05:26:17.735Z,0
2018-01-12T05:26:43.237Z,0
2018-01-12T05:27:08.718Z,0
2018-01-12T05:27:34.211Z,0
2018-01-12T05:27:59.693Z,0
2018-01-12T05:28:25.189Z,0
2018-01-12T05:28:50.656Z,0
2018-01-12T05:29:16.162Z,0
2018-01-12T05:29:41.644Z,0
2018-01-12T05:30:07.134Z,0
2018-01-12T05:30:32.658Z,0
2018-01-12T05:31:56.887Z,0
2018-01-12T05:32:22.388Z,0
2018-01-12T05:32:47.879Z,0
2018-01-12T05:33:13.359Z,0
2018-01-12T05:33:38.880Z,0
2018-01-12T05:34:04.388Z,0
2018-01-12T05:34:29.904Z,0
2018-01-12T05:34:55.405Z,0
2018-01-12T05:35:20.915Z,0
2018-01-12T05:35:46.396Z,0
2018-01-12T05:36:11.910Z,0
2018-01-12T05:36:37.440Z,0
2018-01-12T05:37:02.951Z,0
2018-01-12T05:37:28.438Z,0
2018-01-12T05:37:53.912Z,0
2018-01-12T05:38:19.407Z,0
2018-01-12T05:38:44.890Z,0
2018-01-12T05:39:10.374Z,0
2018-01-12T05:39:35.887Z,0
2018-01-12T05:40:01.382Z,0
2018-01-12T05:41:30.640Z,0
2018-01-12T05:41:56.123Z,0
2018-01-12T05:42:21.598Z,0
2018-01-12T05:42:47.106Z,0
2018-01-12T05:43:12.598Z,0
2018-01-12T05:43:38.131Z,0
2018-01-12T05:44:03.609Z,0
2018-01-12T05:44:29.075Z,0
2018-01-12T05:44:54.623Z,0
2018-01-12T05:45:20.130Z,0
2018-01-12T05:45:45.622Z,0
2018-01-12T05:46:11.121Z,0
2018-01-12T05:46:36.608Z,0
2018-01-12T05:47:02.089Z,0
2018-01-12T05:47:27.571Z,0
2018-01-12T05:47:53.079Z,0
2018-01-12T05:49:01.778Z,0
2018-01-12T05:49:27.286Z,0
2018-01-12T05:49:52.753Z,0
2018-01-12T05:50:18.233Z,0
2018-01-12T05:50:43.724Z,0
2018-01-12T05:51:09.198Z,0
2018-01-12T05:51:34.755Z,0
2018-01-12T05:52:00.229Z,0
2018-01-12T05:53:29.373Z,0
2018-01-12T05:53:54.942Z,0
2018-01-12T05:54:20.422Z,0
2018-01-12T05:54:45.960Z,0
2018-01-12T05:55:11.428Z,0
2018-01-12T05:55:36.935Z,0
2018-01-12T05:56:02.433Z,0
2018-01-12T05:56:27.915Z,0
2018-01-12T05:56:53.376Z,0
2018-01-12T05:57:18.954Z,0
2018-01-12T05:57:44.471Z,0
2018-01-12T05:58:09.942Z,0
2018-01-12T05:58:35.388Z,0
2018-01-12T05:59:00.872Z,0
2018-01-12T05:59:26.371Z,0
2018-01-12T05:59:51.898Z,0
2018-01-12T06:00:17.394Z,0
2018-01-12T06:00:42.867Z,0
2018-01-12T06:01:08.351Z,0
2018-01-12T06:01:33.839Z,0
2018-01-12T06:01:59.371Z,0
2018-01-12T06:02:24.866Z,0
2018-01-12T06:02:50.361Z,0
2018-01-12T06:03:15.849Z,0
2018-01-12T06:03:41.345Z,0
2018-01-12T06:04:06.825Z,0
2018-01-12T06:04:32.294Z,0
2018-01-12T06:04:57.774Z,0
2018-01-12T06:05:23.252Z,0
2018-01-12T06:05:48.808Z,0
2018-01-12T06:06:14.329Z,0
2018-01-12T06:06:39.807Z,0
2018-01-12T06:07:05.268Z,0
2018-01-12T06:07:30.767Z,0
2018-01-12T06:07:56.435Z,0
2018-01-12T06:08:22.009Z,0
2018-01-12T06:08:47.477Z,0
2018-01-12T06:09:13.027Z,0
2018-01-12T06:09:38.529Z,0
2018-01-12T06:10:04.000Z,0
2018-01-12T06:10:29.501Z,0
2018-01-12T06:10:54.968Z,0
2018-01-12T06:11:20.461Z,0
2018-01-12T06:11:45.951Z,0
2018-01-12T06:12:11.419Z,0
2018-01-12T06:12:36.933Z,0
2018-01-12T06:13:02.383Z,0
2018-01-12T06:13:27.889Z,0
2018-01-12T06:13:53.379Z,0
2018-01-12T06:14:18.887Z,0
2018-01-12T06:14:44.374Z,0
2018-01-12T06:15:09.897Z,0
2018-01-12T06:15:35.372Z,0
2018-01-12T06:16:44.093Z,0
2018-01-12T06:17:09.625Z,0
2018-01-12T06:17:35.120Z,0
2018-01-12T06:18:00.679Z,0
2018-01-12T06:18:26.157Z,0
2018-01-12T06:18:51.623Z,0
2018-01-12T06:19:17.226Z,0
2018-01-12T06:19:42.780Z,0
2018-01-12T06:20:08.320Z,0
2018-01-12T06:20:33.816Z,0
2018-01-12T06:20:59.304Z,0
2018-01-12T06:21:24.819Z,0
2018-01-12T06:21:50.283Z,0
2018-01-12T06:22:15.779Z,0
2018-01-12T06:22:41.260Z,0
2018-01-12T06:23:06.788Z,0
2018-01-12T06:23:32.258Z,0
2018-01-12T06:23:57.782Z,0
2018-01-12T06:24:23.254Z,0
2018-01-12T06:24:48.745Z,0
2018-01-12T06:25:14.317Z,0
2018-01-12T06:25:39.901Z,0
2018-01-12T06:26:05.381Z,0
2018-01-12T06:26:30.845Z,0
2018-01-12T06:26:56.369Z,0
2018-01-12T06:27:21.845Z,0
2018-01-12T06:27:47.374Z,0
2018-01-12T06:28:12.819Z,0
2018-01-12T06:28:38.309Z,0
2018-01-12T06:29:03.760Z,0
2018-01-12T06:29:29.262Z,0
2018-01-12T06:29:54.761Z,0
2018-01-12T06:30:20.227Z,0
2018-01-12T06:30:45.723Z,0
2018-01-12T06:31:11.253Z,0
2018-01-12T06:31:36.746Z,0
2018-01-12T06:32:02.271Z,0
2018-01-12T06:32:27.759Z,0
2018-01-12T06:32:53.266Z,0
2018-01-12T06:33:18.778Z,0
2018-01-12T06:33:44.328Z,0
2018-01-12T06:34:09.846Z,0
2018-01-12T06:34:35.346Z,0
2018-01-12T06:35:44.047Z,0
2018-01-12T06:36:09.541Z,0
2018-01-12T06:36:35.008Z,0
2018-01-12T06:37:00.532Z,0
2018-01-12T06:38:29.619Z,0
2018-01-12T06:38:55.111Z,0
2018-01-12T06:39:20.586Z,0
2018-01-12T06:39:46.107Z,0
2018-01-12T06:41:04.703Z,0
2018-01-12T06:41:30.195Z,0
2018-01-12T06:41:55.705Z,0
2018-01-12T06:42:21.175Z,0
2018-01-12T06:42:46.726Z,0
2018-01-12T06:43:12.210Z,0
2018-01-12T06:43:37.708Z,0
2018-01-12T06:44:03.252Z,0
2018-01-12T06:44:28.709Z,0
2018-01-12T06:44:54.198Z,0
2018-01-12T06:45:19.682Z,0
2018-01-12T06:45:45.178Z,0
2018-01-12T06:46:10.670Z,0
2018-01-12T06:46:36.219Z,0
2018-01-12T06:47:01.730Z,0
2018-01-12T06:47:27.237Z,0
2018-01-12T06:47:52.727Z,0
2018-01-12T06:49:01.434Z,0
2018-01-12T06:49:26.957Z,0
2018-01-12T06:49:52.468Z,0
2018-01-12T06:50:18.021Z,0
2018-01-12T06:50:43.518Z,0
2018-01-12T06:51:09.029Z,0
2018-01-12T06:51:34.489Z,0
2018-01-12T06:52:00.016Z,0
2018-01-12T06:52:25.477Z,0
2018-01-12T06:53:44.382Z,0
2018-01-12T06:54:09.908Z,0
2018-01-12T06:54:35.388Z,0
2018-01-12T06:55:00.887Z,0
2018-01-12T06:55:26.365Z,0
2018-01-12T06:55:51.848Z,0
2018-01-12T06:56:17.317Z,0
2018-01-12T06:56:42.833Z,0
2018-01-12T06:57:08.341Z,0
2018-01-12T06:58:32.362Z,0
2018-01-12T06:58:57.843Z,0
2018-01-12T06:59:23.329Z,0
2018-01-12T06:59:48.873Z,0
2018-01-12T07:00:14.357Z,0
2018-01-12T07:00:39.851Z,0
2018-01-12T07:01:05.373Z,0
2018-01-12T07:01:30.868Z,0
2018-01-12T07:01:56.341Z,0
2018-01-12T07:02:21.785Z,0
2018-01-12T07:02:47.306Z,0
2018-01-12T07:03:12.806Z,0
2018-01-12T07:03:38.295Z,0
2018-01-12T07:04:03.779Z,0
2018-01-12T07:04:29.258Z,0
2018-01-12T07:04:54.793Z,0
2018-01-12T07:05:20.300Z,0
2018-01-12T07:05:45.790Z,0
2018-01-12T07:06:11.280Z,0
2018-01-12T07:06:36.798Z,0
2018-01-12T07:07:02.276Z,0
2018-01-12T07:07:27.793Z,0
2018-01-12T07:07:53.280Z,0
2018-01-12T07:09:22.386Z,0
2018-01-12T07:09:47.888Z,0
2018-01-12T07:10:13.378Z,0
2018-01-12T07:10:38.854Z,0
2018-01-12T07:11:04.344Z,0
2018-01-12T07:11:29.797Z,0
2018-01-12T07:11:55.262Z,0
2018-01-12T07:12:20.755Z,0
2018-01-12T07:12:46.278Z,0
2018-01-12T07:13:11.807Z,0
2018-01-12T07:13:37.307Z,0
2018-01-12T07:14:02.817Z,0
2018-01-12T07:14:28.253Z,0
2018-01-12T07:14:53.797Z,0
2018-01-12T07:15:19.290Z,0
2018-01-12T07:16:43.297Z,0
2018-01-12T07:17:08.792Z,0
2018-01-12T07:17:34.286Z,0
2018-01-12T07:18:48.061Z,0
2018-01-12T07:19:13.575Z,0
2018-01-12T07:19:39.097Z,0
2018-01-12T07:20:58.021Z,0
2018-01-12T07:21:23.544Z,0
2018-01-12T07:21:49.049Z,0
2018-01-12T07:22:14.543Z,0
2018-01-12T07:22:40.010Z,0
2018-01-12T07:23:05.514Z,0
2018-01-12T07:23:30.964Z,0
2018-01-12T07:23:56.446Z,0
2018-01-12T07:24:21.967Z,0
2018-01-12T07:24:47.461Z,0
2018-01-12T07:25:12.939Z,0
2018-01-12T07:25:38.422Z,0
2018-01-12T07:26:03.891Z,0
2018-01-12T07:26:29.374Z,0
2018-01-12T07:26:54.835Z,0
2018-01-12T07:27:20.365Z,0
2018-01-12T07:27:45.846Z,0
2018-01-12T07:28:11.325Z,0
2018-01-12T07:28:36.823Z,0
2018-01-12T07:29:02.304Z,0
2018-01-12T07:29:27.821Z,0
2018-01-12T07:29:53.296Z,0
2018-01-12T07:30:18.776Z,0
2018-01-12T07:31:48.028Z,5
2018-01-12T07:32:13.552Z,5
2018-01-12T07:32:39.034Z,5
2018-01-12T07:33:04.517Z,5
2018-01-12T07:33:29.985Z,5
2018-01-12T07:33:55.509Z,5
2018-01-12T07:34:20.988Z,5
2018-01-12T07:34:46.478Z,5
2018-01-12T07:35:11.957Z,5
2018-01-12T07:35:37.508Z,5
2018-01-12T07:36:03.008Z,5
2018-01-12T07:36:28.526Z,5
2018-01-12T07:36:54.015Z,5
2018-01-12T07:37:19.562Z,5
2018-01-12T07:37:45.049Z,5
2018-01-12T07:38:10.584Z,5
2018-01-12T07:38:36.066Z,5
2018-01-12T07:39:01.567Z,5
2018-01-12T07:39:27.054Z,5
2018-01-12T07:40:51.224Z,5
2018-01-12T07:41:16.718Z,5
2018-01-12T07:41:42.214Z,5
2018-01-12T07:42:07.708Z,5
2018-01-12T07:42:33.183Z,5
2018-01-12T07:42:58.659Z,5
2018-01-12T07:43:24.114Z,5
2018-01-12T07:43:49.617Z,5
2018-01-12T07:44:15.107Z,5
2018-01-12T07:44:40.590Z,5
2018-01-12T07:45:06.063Z,5
2018-01-12T07:45:31.590Z,5
2018-01-12T07:45:57.077Z,5
2018-01-12T07:46:22.558Z,5
2018-01-12T07:46:48.056Z,5
2018-01-12T07:47:13.546Z,5
2018-01-12T07:47:39.078Z,5
2018-01-12T07:48:04.616Z,5
2018-01-12T07:48:30.119Z,5
2018-01-12T07:49:53.717Z,5
2018-01-12T07:50:19.187Z,5
2018-01-12T07:50:44.670Z,5
2018-01-12T07:51:10.171Z,5
2018-01-12T07:51:35.661Z,5
2018-01-12T07:52:01.169Z,5
2018-01-12T07:53:20.143Z,10
2018-01-12T07:53:45.628Z,10
2018-01-12T07:54:11.104Z,10
2018-01-12T07:54:36.646Z,10
2018-01-12T07:55:02.068Z,10
2018-01-12T07:55:27.569Z,10
2018-01-12T07:55:53.039Z,10
2018-01-12T07:56:18.515Z,10
2018-01-12T07:56:43.979Z,10
2018-01-12T07:57:09.491Z,10
2018-01-12T07:57:34.971Z,10
2018-01-12T07:58:00.482Z,10
2018-01-12T07:58:25.950Z,10
2018-01-12T07:58:51.443Z,10
2018-01-12T07:59:16.956Z,10
2018-01-12T07:59:42.403Z,10
2018-01-12T08:00:07.901Z,10
2018-01-12T08:00:33.356Z,10
2018-01-12T08:00:58.861Z,10
2018-01-12T08:01:24.372Z,10
2018-01-12T08:01:49.892Z,10
2018-01-12T08:02:15.350Z,10
2018-01-12T08:02:40.822Z,10
2018-01-12T08:03:06.324Z,10
2018-01-12T08:03:31.823Z,10
2018-01-12T08:03:57.337Z,10
2018-01-12T08:04:22.826Z,10
2018-01-12T08:04:48.300Z,10
2018-01-12T08:05:13.790Z,10
2018-01-12T08:05:39.267Z,10
2018-01-12T08:06:04.806Z,10
2018-01-12T08:06:30.303Z,10
2018-01-12T08:07:49.202Z,10
2018-01-12T08:08:14.701Z,10
2018-01-12T08:08:40.194Z,10
2018-01-12T08:09:05.681Z,15
2018-01-12T08:10:24.563Z,15
2018-01-12T08:10:50.043Z,15
2018-01-12T08:11:15.539Z,15
2018-01-12T08:11:41.044Z,15
2018-01-12T08:12:06.535Z,20
2018-01-12T08:12:31.984Z,20
2018-01-12T08:13:45.800Z,20
2018-01-12T08:14:11.293Z,20
2018-01-12T08:14:36.808Z,20
2018-01-12T08:15:02.290Z,25
2018-01-12T08:15:27.747Z,25
2018-01-12T08:15:53.234Z,25
2018-01-12T08:16:18.723Z,25
2018-01-12T08:16:44.256Z,25
2018-01-12T08:17:09.785Z,30
2018-01-12T08:17:35.258Z,30
2018-01-12T08:18:00.776Z,30
2018-01-12T08:19:30.179Z,30
2018-01-12T08:19:55.663Z,25
2018-01-12T08:20:21.149Z,30
2018-01-12T08:20:46.645Z,25
2018-01-12T08:21:12.150Z,25
2018-01-12T08:21:37.667Z,25
2018-01-12T08:22:03.105Z,25
2018-01-12T08:22:28.592Z,25
2018-01-12T08:22:54.056Z,25
2018-01-12T08:23:19.567Z,25
2018-01-12T08:23:45.078Z,25
2018-01-12T08:24:10.559Z,25
2018-01-12T08:25:20.442Z,20
2018-01-12T08:25:45.945Z,20
2018-01-12T08:26:11.430Z,20
2018-01-12T08:26:36.895Z,15
2018-01-12T08:27:02.381Z,15
2018-01-12T08:27:27.881Z,15
2018-01-12T08:27:53.369Z,15
2018-01-12T08:28:18.855Z,15
2018-01-12T08:28:44.347Z,15
2018-01-12T08:29:09.872Z,15
2018-01-12T08:29:35.383Z,15
2018-01-12T08:30:00.847Z,15
2018-01-12T08:30:26.356Z,15
2018-01-12T08:30:51.834Z,10
2018-01-12T08:31:17.313Z,10
2018-01-12T08:31:42.766Z,10
2018-01-12T08:32:08.243Z,10
2018-01-12T08:33:16.958Z,10
2018-01-12T08:33:42.471Z,10
2018-01-12T08:34:07.955Z,10
2018-01-12T08:34:33.460Z,10
2018-01-12T08:34:58.960Z,10
2018-01-12T08:35:24.455Z,10
2018-01-12T08:35:49.953Z,10
2018-01-12T08:36:15.475Z,10
2018-01-12T08:36:40.949Z,10
2018-01-12T08:37:06.467Z,10
2018-01-12T08:37:31.948Z,10
2018-01-12T08:37:57.450Z,10
2018-01-12T08:38:22.959Z,10
2018-01-12T08:38:48.422Z,10
2018-01-12T08:39:13.895Z,10
2018-01-12T08:39:39.392Z,10
2018-01-12T08:40:04.872Z,10
2018-01-12T08:40:30.399Z,10
2018-01-12T08:40:55.872Z,10
2018-01-12T08:41:21.372Z,10
2018-01-12T08:41:46.900Z,10
2018-01-12T08:42:12.385Z,10
2018-01-12T08:42:37.884Z,10
2018-01-12T08:43:03.358Z,10
2018-01-12T08:43:28.885Z,10
2018-01-12T08:43:54.405Z,10
2018-01-12T08:44:19.957Z,10
2018-01-12T08:44:45.463Z,10
2018-01-12T08:45:10.936Z,10
2018-01-12T08:45:36.405Z,10
2018-01-12T08:46:01.908Z,10
2018-01-12T08:46:27.418Z,10
2018-01-12T08:47:41.208Z,10
2018-01-12T08:48:06.727Z,10
2018-01-12T08:48:32.213Z,10
2018-01-12T08:48:57.717Z,10
2018-01-12T08:49:23.226Z,10
2018-01-12T08:49:48.710Z,10
2018-01-12T08:50:14.184Z,10
2018-01-12T08:50:39.690Z,10
2018-01-12T08:51:05.149Z,10
2018-01-12T08:51:30.633Z,10
2018-01-12T08:51:56.128Z,15
2018-01-12T08:52:21.621Z,15
2018-01-12T08:52:47.068Z,15
2018-01-12T08:53:12.550Z,15
2018-01-12T08:53:38.060Z,15
2018-01-12T08:54:03.573Z,15
2018-01-12T08:54:29.085Z,15
2018-01-12T08:54:54.577Z,15
2018-01-12T08:55:20.048Z,15
2018-01-12T08:55:45.543Z,15
2018-01-12T08:56:11.022Z,15
2018-01-12T08:56:36.529Z,15
2018-01-12T08:57:01.992Z,15
2018-01-12T08:58:20.950Z,15
2018-01-12T08:58:46.450Z,15
2018-01-12T08:59:11.944Z,15
2018-01-12T08:59:37.449Z,15
2018-01-12T09:00:02.943Z,15
2018-01-12T09:00:28.427Z,15
2018-01-12T09:00:53.908Z,15
2018-01-12T09:01:19.451Z,15
2018-01-12T09:01:44.986Z,15
2018-01-12T09:02:10.404Z,15
2018-01-12T09:02:35.867Z,20
2018-01-12T09:03:01.350Z,20
2018-01-12T09:03:26.810Z,20
2018-01-12T09:03:52.317Z,20
2018-01-12T09:04:17.793Z,20
2018-01-12T09:04:43.248Z,20
2018-01-12T09:05:08.791Z,20
2018-01-12T09:05:34.277Z,20
2018-01-12T09:05:59.763Z,20
2018-01-12T09:06:25.217Z,20
2018-01-12T09:06:50.678Z,20
2018-01-12T09:07:16.197Z,25
2018-01-12T09:07:41.701Z,25
2018-01-12T09:08:55.584Z,20
2018-01-12T09:09:21.062Z,20
2018-01-12T09:09:46.528Z,20
2018-01-12T09:10:12.066Z,25
2018-01-12T09:10:37.549Z,25
2018-01-12T09:11:03.044Z,25
2018-01-12T09:11:28.537Z,25
2018-01-12T09:11:54.061Z,25
2018-01-12T09:12:19.499Z,25
2018-01-12T09:13:43.508Z,25
2018-01-12T09:14:08.981Z,30
2018-01-12T09:14:34.467Z,30
2018-01-12T09:14:59.939Z,30
2018-01-12T09:16:08.664Z,30
2018-01-12T09:16:34.154Z,30
2018-01-12T09:16:59.646Z,30
2018-01-12T09:17:25.120Z,30
2018-01-12T09:17:50.619Z,30
2018-01-12T09:18:16.117Z,30
2018-01-12T09:18:41.604Z,30
2018-01-12T09:19:07.063Z,30
2018-01-12T09:19:32.594Z,35
2018-01-12T09:19:58.079Z,30
2018-01-12T09:20:23.592Z,30
2018-01-12T09:20:49.066Z,30
2018-01-12T09:21:14.568Z,30
2018-01-12T09:21:40.045Z,30
2018-01-12T09:22:05.533Z,30
2018-01-12T09:22:31.061Z,30
2018-01-12T09:22:56.602Z,30
2018-01-12T09:23:22.084Z,30
2018-01-12T09:23:47.586Z,30
2018-01-12T09:24:13.058Z,30
2018-01-12T09:24:38.564Z,30
2018-01-12T09:25:04.014Z,30
2018-01-12T09:25:29.510Z,35
2018-01-12T09:25:54.999Z,35
2018-01-12T09:26:20.502Z,35
2018-01-12T09:26:45.985Z,35
2018-01-12T09:27:11.481Z,35
2018-01-12T09:27:37.007Z,35
2018-01-12T09:28:02.478Z,35
2018-01-12T09:28:27.950Z,35
2018-01-12T09:28:53.471Z,40
2018-01-12T09:29:18.957Z,40
2018-01-12T09:29:44.439Z,40
2018-01-12T09:30:09.935Z,40
2018-01-12T09:30:35.433Z,40
2018-01-12T09:31:00.920Z,40
2018-01-12T09:31:26.438Z,40
2018-01-12T09:31:51.909Z,40
2018-01-12T09:32:17.410Z,40
2018-01-12T09:32:42.931Z,40
2018-01-12T09:33:08.433Z,40
2018-01-12T09:33:33.936Z,40
2018-01-12T09:33:59.499Z,40
2018-01-12T09:34:24.969Z,40
2018-01-12T09:34:50.475Z,40
2018-01-12T09:35:15.976Z,35
2018-01-12T09:35:41.455Z,35
2018-01-12T09:37:10.541Z,35
2018-01-12T09:37:36.045Z,35
2018-01-12T09:38:01.527Z,35
2018-01-12T09:38:27.017Z,40
2018-01-12T09:38:52.501Z,40
2018-01-12T09:39:18.037Z,40
2018-01-12T09:39:43.513Z,35
2018-01-12T09:40:09.025Z,35
2018-01-12T09:40:34.524Z,35
2018-01-12T09:41:00.033Z,35
2018-01-12T09:41:25.533Z,35
2018-01-12T09:41:51.001Z,40
2018-01-12T09:42:16.573Z,40
2018-01-12T09:42:42.099Z,40
2018-01-12T09:43:07.551Z,40
2018-01-12T09:43:33.093Z,45
2018-01-12T09:43:58.588Z,45
2018-01-12T09:44:24.105Z,45
2018-01-12T09:44:49.549Z,45
2018-01-12T09:45:15.018Z,40
2018-01-12T09:45:40.532Z,40
2018-01-12T09:46:06.034Z,40
2018-01-12T09:46:31.594Z,40
2018-01-12T09:46:57.033Z,45
2018-01-12T09:47:22.505Z,45
2018-01-12T09:47:48.026Z,45
2018-01-12T09:48:13.525Z,45
2018-01-12T09:48:38.994Z,50
2018-01-12T09:49:04.467Z,45
2018-01-12T09:49:29.921Z,45
2018-01-12T09:49:55.446Z,45
2018-01-12T09:50:20.965Z,45
2018-01-12T09:50:46.449Z,50
2018-01-12T09:51:11.958Z,50
2018-01-12T09:51:37.437Z,50
2018-01-12T09:52:02.916Z,50
2018-01-12T09:53:11.793Z,50
2018-01-12T09:53:37.298Z,50
2018-01-12T09:54:02.758Z,50
2018-01-12T09:54:28.240Z,50
2018-01-12T09:54:53.757Z,50
2018-01-12T09:55:19.257Z,50
2018-01-12T09:55:44.734Z,50
2018-01-12T09:56:10.233Z,50
2018-01-12T09:56:35.685Z,50
2018-01-12T09:57:01.188Z,50
2018-01-12T09:57:26.738Z,50
2018-01-12T09:57:52.308Z,50
2018-01-12T09:58:17.806Z,50
2018-01-12T09:58:43.306Z,50
2018-01-12T09:59:08.810Z,45
2018-01-12T09:59:34.353Z,45
2018-01-12T09:59:59.825Z,45
2018-01-12T10:00:25.294Z,45
2018-01-12T10:00:50.766Z,45
2018-01-12T10:01:16.275Z,40
2018-01-12T10:01:41.780Z,40
2018-01-12T10:02:07.263Z,40
2018-01-12T10:02:32.750Z,35
2018-01-12T10:02:58.252Z,35
2018-01-12T10:03:23.747Z,30
2018-01-12T10:03:49.274Z,30
2018-01-12T10:04:14.766Z,30
2018-01-12T10:04:40.290Z,30
2018-01-12T10:05:05.759Z,30
2018-01-12T10:05:31.248Z,30
2018-01-12T10:05:56.730Z,25
2018-01-12T10:06:22.285Z,30
2018-01-12T10:07:46.339Z,25
2018-01-12T10:08:11.839Z,25
2018-01-12T10:08:37.320Z,25
2018-01-12T10:09:02.803Z,25
2018-01-12T10:09:28.289Z,25
2018-01-12T10:09:53.785Z,25
2018-01-12T10:10:19.256Z,25
2018-01-12T10:10:44.744Z,30
2018-01-12T10:11:10.225Z,30
2018-01-12T10:11:35.751Z,30
2018-01-12T10:12:01.284Z,30
2018-01-12T10:12:26.780Z,30
2018-01-12T10:12:52.327Z,30
2018-01-12T10:13:17.834Z,30
2018-01-12T10:13:43.335Z,30
2018-01-12T10:14:08.829Z,35
2018-01-12T10:14:34.305Z,35
2018-01-12T10:14:59.758Z,35
2018-01-12T10:15:25.243Z,35
2018-01-12T10:15:50.745Z,35
2018-01-12T10:17:00.437Z,35
2018-01-12T10:17:25.935Z,35
2018-01-12T10:17:51.430Z,35
2018-01-12T10:18:16.941Z,35
2018-01-12T10:18:42.421Z,35
2018-01-12T10:19:07.893Z,35
2018-01-12T10:19:33.383Z,35
2018-01-12T10:19:58.898Z,35
2018-01-12T10:20:24.378Z,35
2018-01-12T10:21:43.321Z,35
2018-01-12T10:22:08.781Z,40
2018-01-12T10:22:34.298Z,40
2018-01-12T10:22:59.829Z,40
2018-01-12T10:23:25.358Z,40
2018-01-12T10:23:50.847Z,40
2018-01-12T10:24:16.337Z,40
2018-01-12T10:24:41.858Z,40
2018-01-12T10:25:07.345Z,40
2018-01-12T10:25:32.816Z,40
2018-01-12T10:25:58.347Z,40
2018-01-12T10:26:23.808Z,35
2018-01-12T10:27:37.584Z,35
2018-01-12T10:28:03.084Z,35
2018-01-12T10:28:28.569Z,35
2018-01-12T10:28:54.073Z,30
2018-01-12T10:29:19.597Z,30
2018-01-12T10:29:45.048Z,30
2018-01-12T10:30:10.555Z,25
2018-01-12T10:30:36.048Z,25
2018-01-12T10:31:01.555Z,25
2018-01-12T10:31:27.045Z,25
2018-01-12T10:31:52.512Z,25
2018-01-12T10:32:17.996Z,25
2018-01-12T10:32:43.512Z,25
2018-01-12T10:33:09.015Z,25
2018-01-12T10:33:34.528Z,25
2018-01-12T10:34:00.032Z,25
2018-01-12T10:34:25.493Z,25
2018-01-12T10:34:51.031Z,25
2018-01-12T10:35:16.492Z,25
2018-01-12T10:36:35.433Z,25
2018-01-12T10:37:00.939Z,25
2018-01-12T10:37:26.440Z,25
2018-01-12T10:37:51.928Z,25
2018-01-12T10:38:17.472Z,25
2018-01-12T10:38:42.976Z,25
2018-01-12T10:39:08.453Z,25
2018-01-12T10:39:33.959Z,25
2018-01-12T10:39:59.474Z,25
2018-01-12T10:40:24.969Z,25
2018-01-12T10:40:50.493Z,25
2018-01-12T10:41:16.027Z,30
2018-01-12T10:41:41.477Z,30
2018-01-12T10:42:06.964Z,30
2018-01-12T10:42:32.488Z,30
2018-01-12T10:42:57.992Z,30
2018-01-12T10:43:23.467Z,30
2018-01-12T10:43:48.940Z,30
2018-01-12T10:44:14.435Z,30
2018-01-12T10:44:39.913Z,35
2018-01-12T10:45:05.373Z,35
2018-01-12T10:45:30.884Z,35
2018-01-12T10:45:56.369Z,35
2018-01-12T10:46:21.918Z,35
2018-01-12T10:46:47.445Z,35
2018-01-12T10:47:12.980Z,35
2018-01-12T10:47:38.527Z,35
2018-01-12T10:48:04.025Z,35
2018-01-12T10:48:29.499Z,35
2018-01-12T10:48:55.009Z,35
2018-01-12T10:49:20.473Z,35
2018-01-12T10:49:45.999Z,35
2018-01-12T10:50:11.524Z,40
2018-01-12T10:50:37.032Z,40
2018-01-12T10:51:02.507Z,40
2018-01-12T10:51:28.006Z,40
2018-01-12T10:52:36.706Z,40
2018-01-12T10:53:02.192Z,40
2018-01-12T10:53:27.685Z,40
2018-01-12T10:53:53.189Z,40
2018-01-12T10:54:18.648Z,40
2018-01-12T10:54:44.161Z,40
2018-01-12T10:55:09.626Z,40
2018-01-12T10:55:35.151Z,40
2018-01-12T10:56:00.686Z,40
2018-01-12T10:56:26.193Z,40
2018-01-12T10:56:51.703Z,40
2018-01-12T10:57:17.235Z,40
2018-01-12T10:57:42.739Z,45
2018-01-12T10:58:08.238Z,45
2018-01-12T10:58:33.730Z,45
2018-01-12T10:58:59.216Z,45
2018-01-12T10:59:24.713Z,45
2018-01-12T10:59:50.241Z,45
2018-01-12T11:00:15.741Z,45
2018-01-12T11:00:41.191Z,45
2018-01-12T11:01:06.707Z,45
2018-01-12T11:01:32.198Z,45
2018-01-12T11:01:57.734Z,45
2018-01-12T11:02:23.228Z,45
2018-01-12T11:02:48.706Z,45
2018-01-12T11:03:57.416Z,40
2018-01-12T11:04:22.946Z,40
2018-01-12T11:04:48.389Z,40
2018-01-12T11:05:13.867Z,40
2018-01-12T11:05:39.406Z,40
2018-01-12T11:06:04.873Z,40
2018-01-12T11:06:30.400Z,40
2018-01-12T11:06:55.910Z,40
2018-01-12T11:07:21.407Z,40
2018-01-12T11:07:46.927Z,40
2018-01-12T11:08:12.425Z,40
2018-01-12T11:08:37.902Z,40
2018-01-12T11:09:46.598Z,40
2018-01-12T11:10:12.082Z,40
2018-01-12T11:10:37.563Z,40
2018-01-12T11:11:03.045Z,40
2018-01-12T11:11:28.532Z,40
2018-01-12T11:11:54.075Z,40
2018-01-12T11:12:19.579Z,40
2018-01-12T11:12:45.111Z,40
2018-01-12T11:13:10.614Z,35
2018-01-12T11:13:36.092Z,35
2018-01-12T11:14:01.585Z,35
2018-01-12T11:14:27.079Z,35
2018-01-12T11:14:52.547Z,35
2018-01-12T11:15:18.057Z,35
2018-01-12T11:15:43.585Z,35
2018-01-12T11:16:09.067Z,35
2018-01-12T11:16:34.556Z,35
2018-01-12T11:17:00.044Z,35
2018-01-12T11:17:25.552Z,35
2018-01-12T11:17:51.038Z,35
2018-01-12T11:18:16.509Z,35
2018-01-12T11:18:42.020Z,35
2018-01-12T11:19:07.515Z,35
2018-01-12T11:19:32.998Z,35
2018-01-12T11:19:58.492Z,40
2018-01-12T11:20:23.977Z,40
2018-01-12T11:20:49.488Z,40
2018-01-12T11:21:14.980Z,40
2018-01-12T11:21:40.500Z,40
2018-01-12T11:22:06.002Z,45
2018-01-12T11:22:31.528Z,45
2018-01-12T11:22:57.025Z,45
2018-01-12T11:23:22.525Z,50
2018-01-12T11:23:48.011Z,50
2018-01-12T11:24:13.516Z,50
2018-01-12T11:25:22.233Z,55
2018-01-12T11:25:47.729Z,55
2018-01-12T11:26:13.229Z,55
2018-01-12T11:26:38.729Z,60
2018-01-12T11:27:04.211Z,60
2018-01-12T11:27:29.706Z,60
2018-01-12T11:27:55.211Z,60
2018-01-12T11:28:20.697Z,60
2018-01-12T11:28:46.199Z,60
2018-01-12T11:29:11.691Z,60
2018-01-12T11:29:37.181Z,60
2018-01-12T11:30:02.663Z,60
2018-01-12T11:30:28.173Z,55
2018-01-12T11:30:53.684Z,55
2018-01-12T11:31:19.229Z,55
2018-01-12T11:31:44.710Z,50
2018-01-12T11:32:10.197Z,50
2018-01-12T11:32:35.690Z,50
2018-01-12T11:33:01.213Z,50
2018-01-12T11:33:26.783Z,50
2018-01-12T11:33:52.264Z,50
2018-01-12T11:34:17.765Z,50
2018-01-12T11:34:43.283Z,50
2018-01-12T11:35:08.785Z,50
2018-01-12T11:35:34.289Z,50
2018-01-12T11:35:59.787Z,50
2018-01-12T11:37:08.658Z,50
2018-01-12T11:37:34.148Z,55
2018-01-12T11:37:59.687Z,55
2018-01-12T11:39:28.777Z,60
2018-01-12T11:39:54.263Z,60
2018-01-12T11:41:17.729Z,60
2018-01-12T11:41:43.222Z,60
2018-01-12T11:42:08.709Z,60
2018-01-12T11:42:34.201Z,60
2018-01-12T11:42:59.727Z,60
2018-01-12T11:43:25.208Z,60
2018-01-12T11:43:50.750Z,60
2018-01-12T11:44:16.204Z,60
2018-01-12T11:45:45.293Z,55
2018-01-12T11:46:10.774Z,55
2018-01-12T11:46:36.274Z,55
2018-01-12T11:47:01.784Z,55
2018-01-12T11:47:27.301Z,55
2018-01-12T11:47:52.806Z,55
2018-01-12T11:48:18.310Z,55
2018-01-12T11:48:43.844Z,55
2018-01-12T11:49:09.372Z,55
2018-01-12T11:49:34.889Z,55
2018-01-12T11:50:00.364Z,55